sensor_id;sensor_type;location;lat;lon;timestamp;P1;durP1;ratioP1;P2;durP2;ratioP2
65315;SDS011;51920;53.952;10.292;2022-10-22T00:00:41;29.23;;;14.23;;
65315;SDS011;51920;53.952;10.292;2022-10-22T00:03:07;30.55;;;13.90;;
65315;SDS011;51920;53.952;10.292;2022-10-22T00:05:32;30.50;;;14.07;;
65315;SDS011;51920;53.952;10.292;2022-10-22T00:07:58;31.47;;;14.80;;
65315;SDS011;51920;53.952;10.292;2022-10-22T00:10:23;30.23;;;14.77;;
65315;SDS011;51920;53.952;10.292;2022-10-22T00:12:48;30.07;;;13.97;;
65315;SDS011;51920;53.952;10.292;2022-10-22T00:15:14;33.77;;;14.30;;
65315;SDS011;51920;53.952;10.292;2022-10-22T00:17:39;32.97;;;14.60;;
65315;SDS011;51920;53.952;10.292;2022-10-22T00:20:04;27.57;;;12.13;;
65315;SDS011;51920;53.952;10.292;2022-10-22T00:22:30;32.35;;;13.70;;
65315;SDS011;51920;53.952;10.292;2022-10-22T00:24:56;29.37;;;13.50;;
65315;SDS011;51920;53.952;10.292;2022-10-22T00:27:21;29.30;;;13.33;;
65315;SDS011;51920;53.952;10.292;2022-10-22T00:29:47;28.77;;;13.13;;
65315;SDS011;51920;53.952;10.292;2022-10-22T00:32:12;28.13;;;12.77;;
65315;SDS011;51920;53.952;10.292;2022-10-22T00:34:37;30.23;;;13.50;;
65315;SDS011;51920;53.952;10.292;2022-10-22T00:37:03;35.13;;;14.80;;
65315;SDS011;51920;53.952;10.292;2022-10-22T00:39:28;35.23;;;15.33;;
65315;SDS011;51920;53.952;10.292;2022-10-22T00:41:54;31.87;;;13.97;;
65315;SDS011;51920;53.952;10.292;2022-10-22T00:47:24;37.55;;;15.15;;
65315;SDS011;51920;53.952;10.292;2022-10-22T00:49:51;36.07;;;15.27;;
65315;SDS011;51920;53.952;10.292;2022-10-22T00:52:18;32.38;;;14.18;;
65315;SDS011;51920;53.952;10.292;2022-10-22T00:54:44;39.72;;;15.45;;
65315;SDS011;51920;53.952;10.292;2022-10-22T00:57:09;34.73;;;14.80;;
65315;SDS011;51920;53.952;10.292;2022-10-22T00:59:35;35.60;;;14.43;;
65315;SDS011;51920;53.952;10.292;2022-10-22T01:02:02;32.90;;;14.30;;
65315;SDS011;51920;53.952;10.292;2022-10-22T01:04:28;34.97;;;15.00;;
65315;SDS011;51920;53.952;10.292;2022-10-22T01:06:53;36.73;;;15.20;;
65315;SDS011;51920;53.952;10.292;2022-10-22T01:17:32;35.35;;;14.10;;
65315;SDS011;51920;53.952;10.292;2022-10-22T01:22:45;37.53;;;14.87;;
65315;SDS011;51920;53.952;10.292;2022-10-22T01:25:33;34.47;;;14.38;;
65315;SDS011;51920;53.952;10.292;2022-10-22T01:30:48;33.35;;;14.43;;
65315;SDS011;51920;53.952;10.292;2022-10-22T01:33:17;32.25;;;13.20;;
65315;SDS011;51920;53.952;10.292;2022-10-22T01:35:45;34.47;;;15.13;;
65315;SDS011;51920;53.952;10.292;2022-10-22T01:38:17;38.25;;;15.25;;
65315;SDS011;51920;53.952;10.292;2022-10-22T01:40:45;38.97;;;15.70;;
65315;SDS011;51920;53.952;10.292;2022-10-22T01:43:12;32.90;;;13.93;;
65315;SDS011;51920;53.952;10.292;2022-10-22T01:45:51;39.10;;;14.90;;
65315;SDS011;51920;53.952;10.292;2022-10-22T01:51:02;37.50;;;14.97;;
65315;SDS011;51920;53.952;10.292;2022-10-22T01:59:31;44.38;;;15.98;;
65315;SDS011;51920;53.952;10.292;2022-10-22T02:02:23;40.00;;;14.88;;
65315;SDS011;51920;53.952;10.292;2022-10-22T02:05:13;35.20;;;14.50;;
65315;SDS011;51920;53.952;10.292;2022-10-22T02:07:55;35.90;;;13.93;;
65315;SDS011;51920;53.952;10.292;2022-10-22T02:10:25;38.75;;;15.68;;
65315;SDS011;51920;53.952;10.292;2022-10-22T02:12:53;37.83;;;14.38;;
65315;SDS011;51920;53.952;10.292;2022-10-22T02:15:22;32.47;;;13.85;;
65315;SDS011;51920;53.952;10.292;2022-10-22T02:17:50;27.93;;;12.07;;
65315;SDS011;51920;53.952;10.292;2022-10-22T02:20:18;32.17;;;13.40;;
65315;SDS011;51920;53.952;10.292;2022-10-22T02:22:49;30.48;;;13.18;;
65315;SDS011;51920;53.952;10.292;2022-10-22T02:25:15;31.48;;;13.00;;
65315;SDS011;51920;53.952;10.292;2022-10-22T02:27:45;27.10;;;12.23;;
65315;SDS011;51920;53.952;10.292;2022-10-22T02:30:19;40.78;;;15.05;;
65315;SDS011;51920;53.952;10.292;2022-10-22T02:32:55;33.33;;;14.02;;
65315;SDS011;51920;53.952;10.292;2022-10-22T02:35:43;26.20;;;11.77;;
65315;SDS011;51920;53.952;10.292;2022-10-22T02:38:10;37.47;;;14.40;;
65315;SDS011;51920;53.952;10.292;2022-10-22T02:40:36;42.20;;;15.75;;
65315;SDS011;51920;53.952;10.292;2022-10-22T02:43:03;52.95;;;16.50;;
65315;SDS011;51920;53.952;10.292;2022-10-22T02:45:30;48.23;;;16.90;;
65315;SDS011;51920;53.952;10.292;2022-10-22T02:47:56;45.13;;;16.33;;
65315;SDS011;51920;53.952;10.292;2022-10-22T02:50:21;37.10;;;15.63;;
65315;SDS011;51920;53.952;10.292;2022-10-22T02:52:46;33.90;;;14.13;;
65315;SDS011;51920;53.952;10.292;2022-10-22T02:55:12;37.37;;;15.00;;
65315;SDS011;51920;53.952;10.292;2022-10-22T02:57:37;40.90;;;15.07;;
65315;SDS011;51920;53.952;10.292;2022-10-22T03:00:04;38.43;;;15.57;;
65315;SDS011;51920;53.952;10.292;2022-10-22T03:02:30;32.30;;;13.37;;
65315;SDS011;51920;53.952;10.292;2022-10-22T03:04:56;27.15;;;12.20;;
65315;SDS011;51920;53.952;10.292;2022-10-22T03:07:21;31.63;;;13.73;;
65315;SDS011;51920;53.952;10.292;2022-10-22T03:09:46;33.13;;;13.80;;
65315;SDS011;51920;53.952;10.292;2022-10-22T03:12:12;35.90;;;14.93;;
65315;SDS011;51920;53.952;10.292;2022-10-22T03:14:37;39.30;;;14.30;;
65315;SDS011;51920;53.952;10.292;2022-10-22T03:17:02;43.67;;;15.07;;
65315;SDS011;51920;53.952;10.292;2022-10-22T03:19:28;41.22;;;15.20;;
65315;SDS011;51920;53.952;10.292;2022-10-22T03:21:55;36.87;;;14.00;;
65315;SDS011;51920;53.952;10.292;2022-10-22T03:24:24;42.20;;;15.05;;
65315;SDS011;51920;53.952;10.292;2022-10-22T03:26:58;37.15;;;14.02;;
65315;SDS011;51920;53.952;10.292;2022-10-22T03:29:24;45.50;;;15.00;;
65315;SDS011;51920;53.952;10.292;2022-10-22T03:31:51;42.67;;;15.68;;
65315;SDS011;51920;53.952;10.292;2022-10-22T03:34:17;45.50;;;15.77;;
65315;SDS011;51920;53.952;10.292;2022-10-22T03:36:43;50.43;;;16.83;;
65315;SDS011;51920;53.952;10.292;2022-10-22T03:39:09;45.90;;;16.05;;
65315;SDS011;51920;53.952;10.292;2022-10-22T03:41:37;43.08;;;15.30;;
65315;SDS011;51920;53.952;10.292;2022-10-22T03:44:02;43.00;;;15.07;;
65315;SDS011;51920;53.952;10.292;2022-10-22T03:46:31;43.85;;;15.40;;
65315;SDS011;51920;53.952;10.292;2022-10-22T03:48:57;40.67;;;14.17;;
65315;SDS011;51920;53.952;10.292;2022-10-22T03:51:24;35.38;;;14.02;;
65315;SDS011;51920;53.952;10.292;2022-10-22T03:53:50;36.57;;;12.90;;
65315;SDS011;51920;53.952;10.292;2022-10-22T03:56:16;38.43;;;13.93;;
65315;SDS011;51920;53.952;10.292;2022-10-22T03:58:41;43.47;;;14.83;;
65315;SDS011;51920;53.952;10.292;2022-10-22T04:01:08;42.93;;;14.23;;
65315;SDS011;51920;53.952;10.292;2022-10-22T04:03:35;41.42;;;14.82;;
65315;SDS011;51920;53.952;10.292;2022-10-22T04:06:04;50.30;;;15.98;;
65315;SDS011;51920;53.952;10.292;2022-10-22T04:08:31;46.07;;;15.20;;
65315;SDS011;51920;53.952;10.292;2022-10-22T04:10:57;41.42;;;15.05;;
65315;SDS011;51920;53.952;10.292;2022-10-22T04:13:22;43.53;;;15.30;;
65315;SDS011;51920;53.952;10.292;2022-10-22T04:15:48;48.95;;;16.08;;
65315;SDS011;51920;53.952;10.292;2022-10-22T04:18:15;51.70;;;16.58;;
65315;SDS011;51920;53.952;10.292;2022-10-22T04:20:41;65.60;;;17.37;;
65315;SDS011;51920;53.952;10.292;2022-10-22T04:23:07;67.63;;;18.38;;
65315;SDS011;51920;53.952;10.292;2022-10-22T04:25:32;59.40;;;16.27;;
65315;SDS011;51920;53.952;10.292;2022-10-22T04:27:58;55.90;;;15.93;;
65315;SDS011;51920;53.952;10.292;2022-10-22T04:30:23;51.53;;;16.50;;
65315;SDS011;51920;53.952;10.292;2022-10-22T04:32:48;41.43;;;14.40;;
65315;SDS011;51920;53.952;10.292;2022-10-22T04:35:14;86.05;;;16.02;;
65315;SDS011;51920;53.952;10.292;2022-10-22T04:37:39;52.37;;;15.87;;
65315;SDS011;51920;53.952;10.292;2022-10-22T04:40:05;55.40;;;17.10;;
65315;SDS011;51920;53.952;10.292;2022-10-22T04:42:30;53.10;;;15.90;;
65315;SDS011;51920;53.952;10.292;2022-10-22T04:44:56;54.53;;;15.97;;
65315;SDS011;51920;53.952;10.292;2022-10-22T04:47:21;42.73;;;15.43;;
65315;SDS011;51920;53.952;10.292;2022-10-22T04:49:47;46.63;;;15.20;;
65315;SDS011;51920;53.952;10.292;2022-10-22T04:52:12;40.05;;;14.13;;
65315;SDS011;51920;53.952;10.292;2022-10-22T04:54:37;33.97;;;13.07;;
65315;SDS011;51920;53.952;10.292;2022-10-22T04:57:03;40.50;;;15.20;;
65315;SDS011;51920;53.952;10.292;2022-10-22T04:59:28;31.93;;;13.13;;
65315;SDS011;51920;53.952;10.292;2022-10-22T05:01:53;35.47;;;14.47;;
65315;SDS011;51920;53.952;10.292;2022-10-22T05:04:19;45.90;;;13.43;;
65315;SDS011;51920;53.952;10.292;2022-10-22T05:06:44;35.65;;;12.55;;
65315;SDS011;51920;53.952;10.292;2022-10-22T05:09:11;38.30;;;13.60;;
65315;SDS011;51920;53.952;10.292;2022-10-22T05:11:40;71.38;;;15.85;;
65315;SDS011;51920;53.952;10.292;2022-10-22T05:14:09;44.07;;;14.50;;
65315;SDS011;51920;53.952;10.292;2022-10-22T05:16:35;38.47;;;13.40;;
65315;SDS011;51920;53.952;10.292;2022-10-22T05:19:02;29.83;;;12.85;;
65315;SDS011;51920;53.952;10.292;2022-10-22T05:21:28;30.20;;;12.30;;
65315;SDS011;51920;53.952;10.292;2022-10-22T05:23:53;39.03;;;14.27;;
65315;SDS011;51920;53.952;10.292;2022-10-22T05:26:20;53.95;;;14.02;;
65315;SDS011;51920;53.952;10.292;2022-10-22T05:28:47;34.03;;;13.93;;
65315;SDS011;51920;53.952;10.292;2022-10-22T05:31:13;55.40;;;16.00;;
65315;SDS011;51920;53.952;10.292;2022-10-22T05:33:40;43.08;;;15.70;;
65315;SDS011;51920;53.952;10.292;2022-10-22T05:36:07;37.63;;;14.70;;
65315;SDS011;51920;53.952;10.292;2022-10-22T05:38:35;45.10;;;14.07;;
65315;SDS011;51920;53.952;10.292;2022-10-22T05:41:02;38.07;;;13.70;;
65315;SDS011;51920;53.952;10.292;2022-10-22T05:43:32;37.95;;;13.43;;
65315;SDS011;51920;53.952;10.292;2022-10-22T05:46:03;52.43;;;14.53;;
65315;SDS011;51920;53.952;10.292;2022-10-22T05:48:33;60.20;;;14.90;;
65315;SDS011;51920;53.952;10.292;2022-10-22T05:51:03;31.98;;;12.20;;
65315;SDS011;51920;53.952;10.292;2022-10-22T05:53:30;52.83;;;14.63;;
65315;SDS011;51920;53.952;10.292;2022-10-22T05:55:58;41.85;;;14.85;;
65315;SDS011;51920;53.952;10.292;2022-10-22T05:58:25;29.23;;;12.63;;
65315;SDS011;51920;53.952;10.292;2022-10-22T06:00:50;56.63;;;15.33;;
65315;SDS011;51920;53.952;10.292;2022-10-22T06:03:16;79.87;;;16.23;;
65315;SDS011;51920;53.952;10.292;2022-10-22T06:05:41;39.47;;;15.10;;
65315;SDS011;51920;53.952;10.292;2022-10-22T06:08:07;74.17;;;15.83;;
65315;SDS011;51920;53.952;10.292;2022-10-22T06:10:35;37.92;;;14.05;;
65315;SDS011;51920;53.952;10.292;2022-10-22T06:13:02;49.90;;;14.27;;
65315;SDS011;51920;53.952;10.292;2022-10-22T06:15:31;36.50;;;13.90;;
65315;SDS011;51920;53.952;10.292;2022-10-22T06:17:56;52.47;;;15.10;;
65315;SDS011;51920;53.952;10.292;2022-10-22T06:20:22;35.10;;;13.17;;
65315;SDS011;51920;53.952;10.292;2022-10-22T06:22:47;34.00;;;12.93;;
65315;SDS011;51920;53.952;10.292;2022-10-22T06:25:12;38.97;;;14.53;;
65315;SDS011;51920;53.952;10.292;2022-10-22T06:27:38;40.53;;;13.95;;
65315;SDS011;51920;53.952;10.292;2022-10-22T06:30:03;37.77;;;14.43;;
65315;SDS011;51920;53.952;10.292;2022-10-22T06:32:29;39.10;;;13.20;;
65315;SDS011;51920;53.952;10.292;2022-10-22T06:34:54;39.08;;;14.02;;
65315;SDS011;51920;53.952;10.292;2022-10-22T06:37:20;32.33;;;12.73;;
65315;SDS011;51920;53.952;10.292;2022-10-22T06:39:45;41.13;;;13.83;;
65315;SDS011;51920;53.952;10.292;2022-10-22T06:42:11;36.23;;;13.37;;
65315;SDS011;51920;53.952;10.292;2022-10-22T06:44:38;36.75;;;13.60;;
65315;SDS011;51920;53.952;10.292;2022-10-22T06:47:03;45.37;;;13.17;;
65315;SDS011;51920;53.952;10.292;2022-10-22T06:49:29;40.08;;;13.50;;
65315;SDS011;51920;53.952;10.292;2022-10-22T06:51:54;35.03;;;12.60;;
65315;SDS011;51920;53.952;10.292;2022-10-22T06:54:20;70.90;;;14.73;;
65315;SDS011;51920;53.952;10.292;2022-10-22T06:56:46;44.22;;;13.32;;
65315;SDS011;51920;53.952;10.292;2022-10-22T06:59:12;46.13;;;14.57;;
65315;SDS011;51920;53.952;10.292;2022-10-22T07:01:38;40.10;;;13.70;;
65315;SDS011;51920;53.952;10.292;2022-10-22T07:04:04;43.83;;;14.57;;
65315;SDS011;51920;53.952;10.292;2022-10-22T07:06:30;42.77;;;14.10;;
65315;SDS011;51920;53.952;10.292;2022-10-22T07:08:56;34.75;;;13.48;;
65315;SDS011;51920;53.952;10.292;2022-10-22T07:11:27;30.47;;;11.47;;
65315;SDS011;51920;53.952;10.292;2022-10-22T07:13:54;42.60;;;15.45;;
65315;SDS011;51920;53.952;10.292;2022-10-22T07:16:21;41.13;;;14.55;;
65315;SDS011;51920;53.952;10.292;2022-10-22T07:18:47;37.73;;;14.83;;
65315;SDS011;51920;53.952;10.292;2022-10-22T07:21:13;37.55;;;15.27;;
65315;SDS011;51920;53.952;10.292;2022-10-22T07:23:41;48.63;;;16.05;;
65315;SDS011;51920;53.952;10.292;2022-10-22T07:26:06;37.43;;;14.70;;
65315;SDS011;51920;53.952;10.292;2022-10-22T07:28:36;49.97;;;14.70;;
65315;SDS011;51920;53.952;10.292;2022-10-22T07:31:05;46.72;;;16.70;;
65315;SDS011;51920;53.952;10.292;2022-10-22T07:33:32;39.50;;;15.32;;
65315;SDS011;51920;53.952;10.292;2022-10-22T07:35:58;40.20;;;15.60;;
65315;SDS011;51920;53.952;10.292;2022-10-22T07:38:26;40.45;;;14.93;;
65315;SDS011;51920;53.952;10.292;2022-10-22T07:40:52;43.03;;;16.70;;
65315;SDS011;51920;53.952;10.292;2022-10-22T07:43:18;41.33;;;15.50;;
65315;SDS011;51920;53.952;10.292;2022-10-22T07:45:43;40.50;;;15.33;;
65315;SDS011;51920;53.952;10.292;2022-10-22T07:48:09;36.20;;;13.88;;
65315;SDS011;51920;53.952;10.292;2022-10-22T07:50:34;41.47;;;15.60;;
65315;SDS011;51920;53.952;10.292;2022-10-22T07:53:00;61.37;;;16.90;;
65315;SDS011;51920;53.952;10.292;2022-10-22T07:55:26;46.75;;;16.00;;
65315;SDS011;51920;53.952;10.292;2022-10-22T07:57:51;49.60;;;16.30;;
65315;SDS011;51920;53.952;10.292;2022-10-22T08:00:17;47.60;;;15.68;;
65315;SDS011;51920;53.952;10.292;2022-10-22T08:02:44;41.70;;;16.40;;
65315;SDS011;51920;53.952;10.292;2022-10-22T08:05:10;46.23;;;16.90;;
65315;SDS011;51920;53.952;10.292;2022-10-22T08:07:37;36.20;;;14.82;;
65315;SDS011;51920;53.952;10.292;2022-10-22T08:10:02;44.03;;;16.23;;
65315;SDS011;51920;53.952;10.292;2022-10-22T08:12:28;44.63;;;15.93;;
65315;SDS011;51920;53.952;10.292;2022-10-22T08:14:53;42.30;;;16.93;;
65315;SDS011;51920;53.952;10.292;2022-10-22T08:17:19;42.13;;;16.17;;
65315;SDS011;51920;53.952;10.292;2022-10-22T08:19:44;48.85;;;17.35;;
65315;SDS011;51920;53.952;10.292;2022-10-22T08:22:09;43.43;;;17.17;;
65315;SDS011;51920;53.952;10.292;2022-10-22T08:24:35;46.90;;;17.77;;
65315;SDS011;51920;53.952;10.292;2022-10-22T08:27:00;45.37;;;18.20;;
65315;SDS011;51920;53.952;10.292;2022-10-22T08:29:26;47.00;;;18.93;;
65315;SDS011;51920;53.952;10.292;2022-10-22T08:31:51;47.20;;;17.70;;
65315;SDS011;51920;53.952;10.292;2022-10-22T08:34:18;47.13;;;17.35;;
65315;SDS011;51920;53.952;10.292;2022-10-22T08:36:44;51.07;;;18.30;;
65315;SDS011;51920;53.952;10.292;2022-10-22T08:39:09;53.03;;;18.45;;
65315;SDS011;51920;53.952;10.292;2022-10-22T08:41:35;45.53;;;17.70;;
65315;SDS011;51920;53.952;10.292;2022-10-22T08:44:21;43.78;;;16.85;;
65315;SDS011;51920;53.952;10.292;2022-10-22T08:47:14;49.10;;;18.42;;
65315;SDS011;51920;53.952;10.292;2022-10-22T08:49:49;47.13;;;18.47;;
65315;SDS011;51920;53.952;10.292;2022-10-22T08:52:17;54.70;;;20.35;;
65315;SDS011;51920;53.952;10.292;2022-10-22T08:54:51;49.65;;;19.15;;
65315;SDS011;51920;53.952;10.292;2022-10-22T08:57:29;47.13;;;18.42;;
65315;SDS011;51920;53.952;10.292;2022-10-22T09:00:13;48.05;;;18.27;;
65315;SDS011;51920;53.952;10.292;2022-10-22T09:07:54;47.15;;;18.58;;
65315;SDS011;51920;53.952;10.292;2022-10-22T09:10:21;51.58;;;18.60;;
65315;SDS011;51920;53.952;10.292;2022-10-22T09:12:50;46.73;;;18.83;;
65315;SDS011;51920;53.952;10.292;2022-10-22T09:15:17;47.25;;;19.38;;
65315;SDS011;51920;53.952;10.292;2022-10-22T09:17:47;44.23;;;18.70;;
65315;SDS011;51920;53.952;10.292;2022-10-22T09:20:24;39.22;;;18.52;;
65315;SDS011;51920;53.952;10.292;2022-10-22T09:25:49;44.65;;;18.67;;
65315;SDS011;51920;53.952;10.292;2022-10-22T09:28:16;43.78;;;18.25;;
65315;SDS011;51920;53.952;10.292;2022-10-22T09:30:42;42.80;;;18.30;;
65315;SDS011;51920;53.952;10.292;2022-10-22T09:33:13;38.70;;;16.97;;
65315;SDS011;51920;53.952;10.292;2022-10-22T09:35:51;38.45;;;18.33;;
65315;SDS011;51920;53.952;10.292;2022-10-22T09:38:20;35.83;;;17.67;;
65315;SDS011;51920;53.952;10.292;2022-10-22T09:40:51;35.03;;;16.30;;
65315;SDS011;51920;53.952;10.292;2022-10-22T09:43:18;31.02;;;15.70;;
65315;SDS011;51920;53.952;10.292;2022-10-22T09:45:44;28.50;;;15.10;;
65315;SDS011;51920;53.952;10.292;2022-10-22T09:50:46;31.27;;;14.83;;
65315;SDS011;51920;53.952;10.292;2022-10-22T09:53:21;28.92;;;15.00;;
65315;SDS011;51920;53.952;10.292;2022-10-22T09:55:51;26.92;;;14.68;;
65315;SDS011;51920;53.952;10.292;2022-10-22T09:58:22;26.60;;;14.48;;
65315;SDS011;51920;53.952;10.292;2022-10-22T10:00:58;28.13;;;14.77;;
65315;SDS011;51920;53.952;10.292;2022-10-22T10:03:28;26.53;;;14.67;;
65315;SDS011;51920;53.952;10.292;2022-10-22T10:05:56;24.45;;;14.43;;
65315;SDS011;51920;53.952;10.292;2022-10-22T10:08:23;24.67;;;14.10;;
65315;SDS011;51920;53.952;10.292;2022-10-22T10:19:45;18.42;;;12.23;;
65315;SDS011;51920;53.952;10.292;2022-10-22T10:21:56;22.15;;;13.63;;
65315;SDS011;51920;53.952;10.292;2022-10-22T10:27:14;21.70;;;12.82;;
65315;SDS011;51920;53.952;10.292;2022-10-22T10:30:09;19.60;;;11.53;;
65315;SDS011;51920;53.952;10.292;2022-10-22T10:48:24;16.75;;;9.95;;
65315;SDS011;51920;53.952;10.292;2022-10-22T10:53:58;14.68;;;8.82;;
65315;SDS011;51920;53.952;10.292;2022-10-22T10:56:39;15.27;;;8.93;;
65315;SDS011;51920;53.952;10.292;2022-10-22T10:59:23;13.02;;;8.35;;
65315;SDS011;51920;53.952;10.292;2022-10-22T11:07:19;11.43;;;7.68;;
65315;SDS011;51920;53.952;10.292;2022-10-22T11:09:52;12.43;;;7.13;;
65315;SDS011;51920;53.952;10.292;2022-10-22T11:12:23;13.05;;;7.30;;
65315;SDS011;51920;53.952;10.292;2022-10-22T11:15:00;11.40;;;7.18;;
65315;SDS011;51920;53.952;10.292;2022-10-22T11:17:43;10.73;;;6.57;;
65315;SDS011;51920;53.952;10.292;2022-10-22T11:20:18;10.98;;;6.32;;
65315;SDS011;51920;53.952;10.292;2022-10-22T11:22:56;10.97;;;6.60;;
65315;SDS011;51920;53.952;10.292;2022-10-22T11:25:28;12.82;;;5.97;;
65315;SDS011;51920;53.952;10.292;2022-10-22T11:28:01;11.10;;;6.25;;
65315;SDS011;51920;53.952;10.292;2022-10-22T11:30:33;8.75;;;5.50;;
65315;SDS011;51920;53.952;10.292;2022-10-22T11:33:01;11.48;;;4.93;;
65315;SDS011;51920;53.952;10.292;2022-10-22T11:35:30;8.90;;;4.90;;
65315;SDS011;51920;53.952;10.292;2022-10-22T11:37:59;10.32;;;5.38;;
65315;SDS011;51920;53.952;10.292;2022-10-22T11:42:53;9.97;;;5.23;;
65315;SDS011;51920;53.952;10.292;2022-10-22T11:47:52;9.30;;;4.80;;
65315;SDS011;51920;53.952;10.292;2022-10-22T11:53:11;10.68;;;4.97;;
65315;SDS011;51920;53.952;10.292;2022-10-22T11:55:44;7.93;;;4.70;;
65315;SDS011;51920;53.952;10.292;2022-10-22T12:06:05;10.73;;;5.30;;
65315;SDS011;51920;53.952;10.292;2022-10-22T12:19:28;13.00;;;4.78;;
65315;SDS011;51920;53.952;10.292;2022-10-22T12:24:39;12.00;;;4.32;;
65315;SDS011;51920;53.952;10.292;2022-10-22T12:30:09;8.43;;;4.00;;
65315;SDS011;51920;53.952;10.292;2022-10-22T12:32:42;6.65;;;3.72;;
65315;SDS011;51920;53.952;10.292;2022-10-22T12:35:10;7.27;;;3.63;;
65315;SDS011;51920;53.952;10.292;2022-10-22T12:37:40;9.82;;;3.60;;
65315;SDS011;51920;53.952;10.292;2022-10-22T12:40:16;8.88;;;3.50;;
65315;SDS011;51920;53.952;10.292;2022-10-22T12:42:46;8.23;;;3.63;;
65315;SDS011;51920;53.952;10.292;2022-10-22T12:45:21;11.55;;;3.47;;
65315;SDS011;51920;53.952;10.292;2022-10-22T12:47:48;8.15;;;3.10;;
65315;SDS011;51920;53.952;10.292;2022-10-22T12:50:20;8.48;;;3.28;;
65315;SDS011;51920;53.952;10.292;2022-10-22T12:52:53;7.38;;;2.95;;
65315;SDS011;51920;53.952;10.292;2022-10-22T12:55:21;7.27;;;3.23;;
65315;SDS011;51920;53.952;10.292;2022-10-22T12:57:50;6.60;;;3.25;;
65315;SDS011;51920;53.952;10.292;2022-10-22T13:00:20;6.53;;;3.10;;
65315;SDS011;51920;53.952;10.292;2022-10-22T13:02:47;8.18;;;3.30;;
65315;SDS011;51920;53.952;10.292;2022-10-22T13:08:04;7.25;;;2.78;;
65315;SDS011;51920;53.952;10.292;2022-10-22T13:10:34;7.20;;;3.25;;
65315;SDS011;51920;53.952;10.292;2022-10-22T13:13:03;9.60;;;3.20;;
65315;SDS011;51920;53.952;10.292;2022-10-22T13:21:04;9.30;;;2.20;;
65315;SDS011;51920;53.952;10.292;2022-10-22T13:23:33;3.85;;;2.00;;
65315;SDS011;51920;53.952;10.292;2022-10-22T13:26:03;5.05;;;2.42;;
65315;SDS011;51920;53.952;10.292;2022-10-22T13:28:33;5.40;;;2.30;;
65315;SDS011;51920;53.952;10.292;2022-10-22T13:30:59;6.72;;;2.90;;
65315;SDS011;51920;53.952;10.292;2022-10-22T13:33:33;6.55;;;3.10;;
65315;SDS011;51920;53.952;10.292;2022-10-22T13:36:01;6.40;;;3.87;;
65315;SDS011;51920;53.952;10.292;2022-10-22T13:38:27;6.68;;;3.50;;
65315;SDS011;51920;53.952;10.292;2022-10-22T13:40:54;7.75;;;4.30;;
65315;SDS011;51920;53.952;10.292;2022-10-22T13:43:21;8.85;;;3.95;;
65315;SDS011;51920;53.952;10.292;2022-10-22T13:45:47;9.18;;;4.07;;
65315;SDS011;51920;53.952;10.292;2022-10-22T13:48:19;8.77;;;4.13;;
65315;SDS011;51920;53.952;10.292;2022-10-22T13:50:47;5.78;;;4.40;;
65315;SDS011;51920;53.952;10.292;2022-10-22T13:53:14;6.05;;;3.70;;
65315;SDS011;51920;53.952;10.292;2022-10-22T13:55:48;9.02;;;3.92;;
65315;SDS011;51920;53.952;10.292;2022-10-22T13:58:17;6.28;;;4.00;;
65315;SDS011;51920;53.952;10.292;2022-10-22T14:00:45;8.13;;;4.47;;
65315;SDS011;51920;53.952;10.292;2022-10-22T14:03:14;8.40;;;4.13;;
65315;SDS011;51920;53.952;10.292;2022-10-22T14:05:41;8.15;;;4.03;;
65315;SDS011;51920;53.952;10.292;2022-10-22T14:08:10;9.67;;;4.23;;
65315;SDS011;51920;53.952;10.292;2022-10-22T14:10:38;6.22;;;4.03;;
65315;SDS011;51920;53.952;10.292;2022-10-22T14:13:05;8.80;;;4.33;;
65315;SDS011;51920;53.952;10.292;2022-10-22T14:15:32;7.55;;;4.10;;
65315;SDS011;51920;53.952;10.292;2022-10-22T14:17:58;8.40;;;4.15;;
65315;SDS011;51920;53.952;10.292;2022-10-22T14:20:27;9.20;;;4.78;;
65315;SDS011;51920;53.952;10.292;2022-10-22T14:22:53;8.43;;;4.70;;
65315;SDS011;51920;53.952;10.292;2022-10-22T14:25:20;8.38;;;4.60;;
65315;SDS011;51920;53.952;10.292;2022-10-22T14:27:48;8.95;;;4.70;;
65315;SDS011;51920;53.952;10.292;2022-10-22T14:30:18;6.20;;;4.60;;
65315;SDS011;51920;53.952;10.292;2022-10-22T14:32:45;11.95;;;4.90;;
65315;SDS011;51920;53.952;10.292;2022-10-22T14:35:13;7.13;;;4.63;;
65315;SDS011;51920;53.952;10.292;2022-10-22T14:37:43;8.45;;;5.15;;
65315;SDS011;51920;53.952;10.292;2022-10-22T14:40:10;9.55;;;5.10;;
65315;SDS011;51920;53.952;10.292;2022-10-22T14:42:38;7.00;;;4.93;;
65315;SDS011;51920;53.952;10.292;2022-10-22T14:45:06;9.60;;;5.55;;
65315;SDS011;51920;53.952;10.292;2022-10-22T14:47:45;6.90;;;5.00;;
65315;SDS011;51920;53.952;10.292;2022-10-22T14:50:11;7.45;;;5.00;;
65315;SDS011;51920;53.952;10.292;2022-10-22T14:52:37;8.93;;;5.22;;
65315;SDS011;51920;53.952;10.292;2022-10-22T14:55:03;7.97;;;5.07;;
65315;SDS011;51920;53.952;10.292;2022-10-22T14:57:29;9.23;;;5.32;;
65315;SDS011;51920;53.952;10.292;2022-10-22T14:59:54;8.40;;;5.57;;
65315;SDS011;51920;53.952;10.292;2022-10-22T15:02:20;9.30;;;5.17;;
65315;SDS011;51920;53.952;10.292;2022-10-22T15:04:46;8.95;;;5.30;;
65315;SDS011;51920;53.952;10.292;2022-10-22T15:07:12;9.55;;;5.30;;
65315;SDS011;51920;53.952;10.292;2022-10-22T15:09:38;8.47;;;5.50;;
65315;SDS011;51920;53.952;10.292;2022-10-22T15:12:04;7.32;;;5.10;;
65315;SDS011;51920;53.952;10.292;2022-10-22T15:14:29;7.37;;;5.07;;
65315;SDS011;51920;53.952;10.292;2022-10-22T15:16:55;10.47;;;5.20;;
65315;SDS011;51920;53.952;10.292;2022-10-22T15:19:20;7.95;;;5.15;;
65315;SDS011;51920;53.952;10.292;2022-10-22T15:21:46;9.10;;;5.30;;
65315;SDS011;51920;53.952;10.292;2022-10-22T15:24:11;9.47;;;5.40;;
65315;SDS011;51920;53.952;10.292;2022-10-22T15:26:37;8.20;;;5.38;;
65315;SDS011;51920;53.952;10.292;2022-10-22T15:29:03;10.07;;;5.77;;
65315;SDS011;51920;53.952;10.292;2022-10-22T15:31:43;7.47;;;5.53;;
65315;SDS011;51920;53.952;10.292;2022-10-22T15:34:21;9.15;;;6.50;;
65315;SDS011;51920;53.952;10.292;2022-10-22T15:36:52;10.23;;;7.10;;
65315;SDS011;51920;53.952;10.292;2022-10-22T15:39:18;11.93;;;7.07;;
65315;SDS011;51920;53.952;10.292;2022-10-22T15:41:44;13.60;;;7.30;;
65315;SDS011;51920;53.952;10.292;2022-10-22T15:44:15;10.77;;;8.10;;
65315;SDS011;51920;53.952;10.292;2022-10-22T15:46:41;12.88;;;8.50;;
65315;SDS011;51920;53.952;10.292;2022-10-22T15:49:07;14.33;;;8.93;;
65315;SDS011;51920;53.952;10.292;2022-10-22T15:51:32;15.23;;;9.33;;
65315;SDS011;51920;53.952;10.292;2022-10-22T15:53:58;15.20;;;9.33;;
65315;SDS011;51920;53.952;10.292;2022-10-22T15:56:24;14.00;;;9.20;;
65315;SDS011;51920;53.952;10.292;2022-10-22T15:58:52;15.57;;;8.63;;
65315;SDS011;51920;53.952;10.292;2022-10-22T16:01:24;13.00;;;8.33;;
65315;SDS011;51920;53.952;10.292;2022-10-22T16:03:51;15.75;;;8.70;;
65315;SDS011;51920;53.952;10.292;2022-10-22T16:06:31;14.40;;;9.27;;
65315;SDS011;51920;53.952;10.292;2022-10-22T16:08:58;15.93;;;8.63;;
65315;SDS011;51920;53.952;10.292;2022-10-22T16:11:50;12.60;;;9.18;;
65315;SDS011;51920;53.952;10.292;2022-10-22T16:14:17;14.03;;;9.40;;